Time;durP1;ratioP1;P1;durP2;ratioP2;P2;SDS_P1;SDS_P2;PMS_P1;PMS_P2;Temp;Humidity;BMP_temperature;BMP_pressure;BME280_temperature;BME280_humidity;BME280_pressure;Samples;Min_cycle;Max_cycle;Signal;HPM_P1;HPM_P2
2022/05/12 00:02:07;;;;;;;9.70;7.90;;;;;;;16.93;60.44;99747.20;88262;1274;83644;-64
2022/05/12 00:04:16;;;;;;;9.40;7.70;;;;;;;16.90;60.38;99746.71;88276;1273;99384;-65
2022/05/12 00:06:25;;;;;;;9.20;8.30;;;;;;;16.88;60.47;99746.13;88290;1273;90120;-64
2022/05/12 00:08:36;;;;;;;9.00;8.20;;;;;;;16.87;60.59;99740.88;88220;1273;93863;-63
2022/05/12 00:10:46;;;;;;;9.30;8.00;;;;;;;16.86;60.68;99738.25;88250;1274;80338;-64
2022/05/12 00:12:57;;;;;;;8.50;7.50;;;;;;;16.88;60.57;99736.97;88294;1274;81605;-65
2022/05/12 00:15:15;;;;;;;10.50;8.30;;;;;;;16.89;60.57;99734.04;88283;1273;99513;-64
2022/05/12 00:17:24;;;;;;;9.30;7.80;;;;;;;16.89;60.75;99733.92;88308;1273;88423;-69
2022/05/12 00:19:33;;;;;;;9.20;7.90;;;;;;;16.92;60.70;99728.36;88272;1273;94285;-68
2022/05/12 00:21:43;;;;;;;9.30;8.10;;;;;;;16.92;60.81;99728.14;88261;1273;78608;-68
2022/05/12 00:23:57;;;;;;;8.60;7.50;;;;;;;16.91;60.76;99726.27;88299;1273;83022;-69
2022/05/12 00:26:07;;;;;;;;;;;;;;;16.95;60.70;99725.73;88310;1272;98788;-70
2022/05/12 00:28:18;;;;;;;9.50;7.50;;;;;;;17.00;60.69;99726.54;88178;1274;88215;-68
2022/05/12 00:30:27;;;;;;;8.90;7.90;;;;;;;17.04;60.73;99723.20;88283;1273;94919;-67
2022/05/12 00:32:40;;;;;;;8.10;7.20;;;;;;;17.07;60.78;99719.50;88292;1273;80073;-64
2022/05/12 00:34:51;;;;;;;;;;;;;;;17.18;60.82;99721.26;88324;1273;83172;-64
2022/05/12 00:37:03;;;;;;;8.20;7.40;;;;;;;17.24;60.68;99720.98;88294;1273;98752;-69
2022/05/12 00:39:13;;;;;;;10.30;8.30;;;;;;;17.28;60.59;99716.55;88264;1273;87990;-69
2022/05/12 00:41:22;;;;;;;9.00;7.60;;;;;;;17.33;60.50;99715.60;88295;1273;96124;-67
2022/05/12 00:43:44;;;;;;;8.70;7.50;;;;;;;17.39;60.35;99715.84;88304;1273;79758;-68
2022/05/12 00:45:54;;;;;;;10.30;8.00;;;;;;;17.42;60.33;99715.90;88299;1272;81184;-63
2022/05/12 00:48:03;;;;;;;9.20;7.50;;;;;;;17.41;60.16;99712.30;88273;1273;100495;-68
2022/05/12 00:50:13;;;;;;;8.00;7.10;;;;;;;17.42;60.15;99713.39;88237;1273;87194;-69
2022/05/12 00:52:26;;;;;;;8.50;7.70;;;;;;;17.44;60.03;99713.20;88267;1273;94297;-67
2022/05/12 00:54:46;;;;;;;10.40;7.50;;;;;;;17.42;59.94;99708.31;88272;1273;78423;-68
2022/05/12 00:56:58;;;;;;;8.80;7.30;;;;;;;17.42;59.97;99706.84;88264;1273;81500;-65
2022/05/12 00:59:11;;;;;;;10.20;7.60;;;;;;;17.42;59.88;99704.88;88254;1273;99423;-64
2022/05/12 01:01:20;;;;;;;9.30;8.40;;;;;;;17.41;59.96;99703.66;88191;1274;89246;-69
2022/05/12 01:03:31;;;;;;;10.40;7.70;;;;;;;17.44;59.92;99701.90;88287;1273;95473;-70
2022/05/12 01:05:41;;;;;;;9.90;7.20;;;;;;;17.44;59.83;99696.55;88276;1272;78850;-68
2022/05/12 01:07:51;;;;;;;7.70;6.90;;;;;;;17.43;59.74;99698.73;88283;1273;82518;-63
2022/05/12 01:10:01;;;;;;;10.30;8.00;;;;;;;17.42;59.69;99694.88;88296;1273;97961;-64
2022/05/12 01:12:13;;;;;;;8.40;7.60;;;;;;;17.42;59.80;99694.92;88295;1273;87555;-68
2022/05/12 01:14:21;;;;;;;11.60;7.00;;;;;;;17.44;59.85;99696.82;88279;1273;95641;-69
2022/05/12 01:16:44;;;;;;;9.50;7.20;;;;;;;17.47;59.81;99693.36;88281;1273;78538;-68
2022/05/12 01:18:53;;;;;;;10.10;7.30;;;;;;;17.47;59.67;99690.10;88297;1273;81180;-69
2022/05/12 01:21:03;;;;;;;9.20;7.20;;;;;;;17.47;59.60;99685.77;88270;1273;99216;-65
2022/05/12 01:23:36;;;;;;;9.60;7.20;;;;;;;17.46;59.55;99688.05;88272;1273;89182;-63
2022/05/12 01:25:45;;;;;;;8.00;7.00;;;;;;;17.46;59.54;99682.23;88307;1273;94526;-66
2022/05/12 01:27:54;;;;;;;10.00;7.10;;;;;;;17.47;59.43;99682.83;88230;1273;77260;-67
2022/05/12 01:30:09;;;;;;;10.30;7.10;;;;;;;17.47;59.49;99677.59;88282;1273;81929;-63
2022/05/12 01:32:23;;;;;;;10.50;7.50;;;;;;;17.48;59.40;99677.42;88301;1273;98676;-63
2022/05/12 01:34:32;;;;;;;8.50;7.00;;;;;;;17.51;59.43;99675.69;88216;1274;87705;-62
2022/05/12 01:36:44;;;;;;;7.70;7.00;;;;;;;17.55;59.48;99668.60;88277;1273;94763;-69
2022/05/12 01:38:53;;;;;;;8.80;7.20;;;;;;;17.58;59.34;99670.52;88254;1273;81156;-68
2022/05/12 01:41:06;;;;;;;8.00;6.50;;;;;;;17.61;59.32;99664.27;88239;1273;80830;-63
2022/05/12 01:43:17;;;;;;;9.00;6.90;;;;;;;17.63;59.13;99666.25;88273;1274;99822;-64
2022/05/12 01:45:27;;;;;;;10.30;6.70;;;;;;;17.64;59.12;99662.55;88294;1273;89206;-63
2022/05/12 01:47:38;;;;;;;8.70;7.20;;;;;;;17.64;59.03;99658.08;88233;1273;95921;-68
2022/05/12 01:49:48;;;;;;;8.90;6.60;;;;;;;17.62;58.92;99661.23;88241;1273;78980;-69
2022/05/12 01:51:59;;;;;;;10.90;6.50;;;;;;;17.61;58.98;99656.90;88202;1273;82284;-63
2022/05/12 01:54:09;;;;;;;7.40;6.50;;;;;;;17.62;58.94;99653.69;88257;1273;99899;-63
2022/05/12 01:56:18;;;;;;;11.50;7.20;;;;;;;17.60;58.85;99653.27;88273;1273;87911;-68
2022/05/12 01:58:30;;;;;;;8.30;6.60;;;;;;;17.59;58.82;99654.61;88253;1273;94946;-69
2022/05/12 02:00:40;;;;;;;7.40;6.50;;;;;;;17.61;58.81;99654.27;88249;1273;78123;-68
2022/05/12 02:02:49;;;;;;;7.70;6.40;;;;;;;17.59;58.77;99654.36;88283;1273;81807;-69
2022/05/12 02:04:58;;;;;;;10.20;7.10;;;;;;;17.57;58.73;99648.10;88283;1273;99979;-68
2022/05/12 02:07:07;;;;;;;8.50;6.50;;;;;;;17.56;58.71;99650.48;88313;1274;88182;-66
2022/05/12 02:09:17;;;;;;;9.30;6.90;;;;;;;17.56;58.77;99647.46;88286;1273;95311;-65
2022/05/12 02:11:29;;;;;;;7.70;6.30;;;;;;;17.56;58.79;99639.71;88240;1273;81743;-63
2022/05/12 02:13:39;;;;;;;6.80;6.20;;;;;;;17.56;58.74;99638.35;88309;1274;81101;-63
2022/05/12 02:15:52;;;;;;;9.60;6.00;;;;;;;17.58;58.67;99638.33;88256;1273;100089;-66
2022/05/12 02:18:04;;;;;;;9.90;6.60;;;;;;;17.57;58.55;99634.88;88261;1273;87833;-64
2022/05/12 02:20:16;;;;;;;7.30;6.30;;;;;;;17.55;58.56;99636.59;88262;1273;94110;-65
2022/05/12 02:22:25;;;;;;;7.10;6.30;;;;;;;17.54;58.47;99635.77;88266;1272;78805;-69
2022/05/12 02:24:34;;;;;;;7.80;6.30;;;;;;;17.51;58.62;99628.27;88291;1273;81425;-68
2022/05/12 02:26:45;;;;;;;6.60;5.90;;;;;;;17.51;58.50;99625.65;88264;1274;100416;-64
2022/05/12 02:28:58;;;;;;;7.40;6.10;;;;;;;17.50;58.56;99621.09;88283;1273;88396;-64
2022/05/12 02:31:08;;;;;;;9.70;6.20;;;;;;;17.49;58.45;99621.03;88283;1273;95384;-67
2022/05/12 02:33:20;;;;;;;7.10;6.20;;;;;;;17.51;58.49;99623.34;88217;1273;80782;-68
2022/05/12 02:35:32;;;;;;;7.60;6.10;;;;;;;17.53;58.46;99619.48;88325;1274;81515;-69
2022/05/12 02:37:45;;;;;;;12.30;6.80;;;;;;;17.54;58.35;99618.11;88288;1273;98000;-68
2022/05/12 02:39:58;;;;;;;9.30;6.30;;;;;;;17.54;58.36;99613.25;88288;1273;89187;-69
2022/05/12 02:42:09;;;;;;;8.10;5.80;;;;;;;17.55;58.27;99608.80;88269;1272;94563;-67
2022/05/12 02:44:22;;;;;;;9.70;5.70;;;;;;;17.59;58.33;99604.95;88286;1273;78781;-68
2022/05/12 02:46:32;;;;;;;6.40;5.70;;;;;;;17.65;58.27;99605.70;88242;1273;83337;-67
2022/05/12 02:48:44;;;;;;;7.70;6.20;;;;;;;17.66;58.14;99608.05;88240;1273;99604;-68
2022/05/12 02:50:54;;;;;;;7.10;6.00;;;;;;;17.66;58.10;99604.52;88262;1273;89198;-66
2022/05/12 02:53:06;;;;;;;6.40;5.60;;;;;;;17.69;58.03;99603.17;88283;1273;95790;-68
2022/05/12 02:55:15;;;;;;;7.20;5.90;;;;;;;17.67;57.93;99599.27;88282;1273;80467;-68
2022/05/12 02:57:27;;;;;;;8.30;5.90;;;;;;;17.69;57.94;99596.13;88210;1274;83023;-68
2022/05/12 02:59:37;;;;;;;6.40;5.40;;;;;;;17.71;57.77;99591.13;88268;1273;99765;-68
2022/05/12 03:01:46;;;;;;;10.20;5.80;;;;;;;17.70;57.69;99593.52;88278;1273;85896;-68
2022/05/12 03:03:55;;;;;;;8.50;6.30;;;;;;;17.72;57.70;99590.32;88246;1273;96289;-68
2022/05/12 03:06:04;;;;;;;7.70;5.20;;;;;;;17.76;57.67;99586.44;88274;1273;80521;-69
2022/05/12 03:08:15;;;;;;;10.10;5.10;;;;;;;17.80;57.60;99582.17;88221;1273;81240;-68
2022/05/12 03:10:25;;;;;;;8.50;5.70;;;;;;;17.82;57.53;99586.94;88282;1273;97280;-67
2022/05/12 03:12:37;;;;;;;8.70;5.40;;;;;;;17.82;57.42;99584.38;88292;1273;87378;-67
2022/05/12 03:14:46;;;;;;;6.80;5.40;;;;;;;17.84;57.46;99585.05;88270;1273;94526;-66
2022/05/12 03:16:55;;;;;;;10.30;5.80;;;;;;;17.83;57.40;99581.09;88247;1273;78767;-69
2022/05/12 03:19:08;;;;;;;6.40;5.70;;;;;;;17.83;57.36;99585.18;88034;1273;334978;-68
2022/05/12 03:21:18;;;;;;;7.40;5.30;;;;;;;17.85;57.25;99578.33;88288;1273;97866;-67
2022/05/12 03:23:30;;;;;;;7.80;6.00;;;;;;;17.89;57.30;99576.36;88253;1273;90099;-68
2022/05/12 03:25:39;;;;;;;10.90;7.20;;;;;;;17.96;57.12;99579.05;88247;1273;95135;-67
2022/05/12 03:27:51;;;;;;;6.70;5.10;;;;;;;18.00;57.06;99578.45;88290;1273;78181;-67
2022/05/12 03:30:01;;;;;;;7.80;5.30;;;;;;;18.05;56.99;99574.08;88247;1274;83741;-68
2022/05/12 03:32:12;;;;;;;7.20;5.40;;;;;;;18.12;56.94;99576.60;88306;1273;100153;-67
2022/05/12 03:34:24;;;;;;;7.00;5.70;;;;;;;18.16;56.76;99574.08;88269;1273;88243;-68
2022/05/12 03:36:39;;;;;;;5.80;5.00;;;;;;;18.26;56.68;99573.23;88281;1273;93409;-63
2022/05/12 03:38:48;;;;;;;9.00;5.30;;;;;;;18.37;56.48;99572.79;88235;1271;77061;-65
2022/05/12 03:40:57;;;;;;;9.20;5.30;;;;;;;18.44;56.35;99574.81;88317;1271;80866;-64
2022/05/12 03:43:06;;;;;;;10.10;5.00;;;;;;;18.51;56.21;99575.02;88271;1273;100418;-64
2022/05/12 03:45:17;;;;;;;6.80;5.40;;;;;;;18.60;56.08;99575.75;88276;1271;87798;-64
2022/05/12 03:47:28;;;;;;;6.90;5.00;;;;;;;18.97;55.94;99573.84;88305;1271;94055;-69
2022/05/12 03:49:37;;;;;;;8.00;4.90;;;;;;;19.70;55.43;99571.88;88293;1271;80417;-68
2022/05/12 03:51:49;;;;;;;6.00;4.60;;;;;;;20.35;54.50;99567.98;88303;1273;82372;-67
2022/05/12 03:54:03;;;;;;;6.50;5.20;;;;;;;20.38;53.76;99569.86;88287;1271;99601;-67
2022/05/12 03:56:15;;;;;;;6.60;4.20;;;;;;;20.38;53.59;99566.34;88288;1271;88855;-69
2022/05/12 03:58:25;;;;;;;9.80;4.60;;;;;;;20.38;52.98;99567.33;88271;1271;93641;-67
2022/05/12 04:00:35;;;;;;;8.00;5.00;;;;;;;20.20;52.83;99564.65;88296;1271;77737;-68
2022/05/12 04:02:45;;;;;;;8.80;5.30;;;;;;;20.02;52.82;99564.84;88273;1273;83352;-64
2022/05/12 04:04:57;;;;;;;7.90;4.90;;;;;;;19.80;52.96;99558.27;88292;1271;97175;-63
2022/05/12 04:07:09;;;;;;;6.60;5.10;;;;;;;19.62;53.23;99558.41;88305;1271;86178;-68
2022/05/12 04:09:22;;;;;;;5.70;4.50;;;;;;;19.61;53.22;99557.38;88302;1271;95607;-69
2022/05/12 04:11:31;;;;;;;9.80;5.80;;;;;;;19.59;53.23;99560.32;88308;1271;78975;-64
2022/05/12 04:13:44;;;;;;;6.80;4.50;;;;;;;19.61;53.30;99559.45;88314;1271;82505;-64
2022/05/12 04:15:59;;;;;;;6.70;4.60;;;;;;;19.64;53.26;99549.59;88304;1271;99275;-64
2022/05/12 04:18:11;;;;;;;8.10;4.80;;;;;;;19.78;53.24;99545.64;88286;1271;88621;-66
2022/05/12 04:20:23;;;;;;;10.90;4.50;;;;;;;19.93;53.02;99545.95;88290;1271;95492;-68
2022/05/12 04:22:32;;;;;;;7.10;4.10;;;;;;;20.07;52.75;99546.58;88309;1271;78064;-70
2022/05/12 04:24:41;;;;;;;8.30;4.40;;;;;;;20.22;52.50;99548.47;88302;1271;82506;-70
2022/05/12 04:26:53;;;;;;;7.20;5.00;;;;;;;20.37;52.39;99546.98;88290;1271;99720;-69
2022/05/12 04:29:02;;;;;;;7.60;4.40;;;;;;;20.50;52.10;99549.34;88313;1271;88888;-67
2022/05/12 04:31:11;;;;;;;7.80;4.40;;;;;;;20.58;52.05;99546.04;88287;1271;95203;-67
2022/05/12 04:35:51;;;;;;;7.80;4.80;;;;;;;20.65;51.69;99548.41;88319;1271;81148;-66
2022/05/12 04:38:04;;;;;;;7.70;5.00;;;;;;;21.04;51.80;99545.98;88304;1271;98680;-68
2022/05/12 04:40:26;;;;;;;10.70;4.70;;;;;;;22.36;50.79;99542.98;88292;1271;89346;-69
2022/05/12 04:42:37;;;;;;;7.30;4.20;;;;;;;24.02;49.31;99540.57;88301;1271;93892;-66
2022/05/12 04:44:46;;;;;;;8.90;4.10;;;;;;;25.71;47.90;99537.73;88270;1271;78175;-67
2022/05/12 04:46:55;;;;;;;8.60;4.40;;;;;;;27.01;45.26;99533.41;88291;1271;80378;-65
2022/05/12 04:49:05;;;;;;;9.40;4.40;;;;;;;27.48;43.95;99533.06;88204;1273;98213;-67
2022/05/12 04:51:14;;;;;;;8.20;4.10;;;;;;;28.29;42.14;99535.98;88317;1271;87154;-68
2022/05/12 04:53:22;;;;;;;6.60;3.90;;;;;;;28.99;40.70;99534.33;88270;1271;96046;-69
2022/05/12 04:55:33;;;;;;;9.00;4.00;;;;;;;29.91;39.97;99526.87;88240;1273;80997;-72
2022/05/12 04:57:46;;;;;;;9.30;4.40;;;;;;;30.74;38.80;99524.48;88328;1271;81120;-71
2022/05/12 04:59:56;;;;;;;11.10;4.40;;;;;;;31.28;37.36;99518.90;88300;1271;99017;-70
2022/05/12 05:02:06;;;;;;;5.90;3.60;;;;;;;31.96;36.80;99521.55;88342;1271;89006;-69
2022/05/12 05:04:15;;;;;;;9.10;4.00;;;;;;;32.48;34.53;99514.02;88277;1271;96266;-69
2022/05/12 05:06:24;;;;;;;8.50;4.20;;;;;;;32.40;34.34;99509.08;88325;1271;80035;-75
2022/05/12 05:08:36;;;;;;;8.20;4.20;;;;;;;32.42;33.24;99510.57;88299;1271;83021;-73
2022/05/12 05:10:45;;;;;;;7.50;4.50;;;;;;;32.07;33.00;99514.78;88271;1273;99879;-73
2022/05/12 05:12:58;;;;;;;14.20;4.90;;;;;;;31.39;32.46;99523.04;88310;1271;88209;-65
2022/05/12 05:15:10;;;;;;;11.10;4.50;;;;;;;31.20;33.03;99516.48;88268;1271;94766;-67
2022/05/12 05:17:24;;;;;;;6.70;3.80;;;;;;;31.08;32.83;99515.25;88306;1271;79901;-67
2022/05/12 05:19:31;;;;;;;;;;;;;;;31.48;32.45;99510.27;88312;1271;80534;-69
2022/05/12 05:21:43;;;;;;;5.40;4.40;;;;;;;31.94;32.34;99506.48;88328;1273;98236;-72
2022/05/12 05:23:52;;;;;;;8.90;4.50;;;;;;;31.28;31.53;99509.19;88332;1271;88399;-67
2022/05/12 05:26:01;;;;;;;8.60;4.00;;;;;;;30.15;31.65;99511.98;88267;1271;94473;-66
2022/05/12 05:28:13;;;;;;;18.50;4.60;;;;;;;29.83;32.87;99512.01;88313;1271;78375;-76
2022/05/12 05:30:25;;;;;;;8.50;4.20;;;;;;;30.93;32.21;99505.08;88303;1271;80725;-75
2022/05/12 05:32:34;;;;;;;10.40;4.30;;;;;;;32.13;31.77;99501.55;88293;1271;97627;-68
2022/05/12 05:34:43;;;;;;;7.50;3.40;;;;;;;33.13;30.94;99501.37;88310;1271;87120;-68
2022/05/12 05:36:51;;;;;;;9.50;4.20;;;;;;;34.05;30.51;99506.05;88309;1271;93546;-73
2022/05/12 05:39:04;;;;;;;10.40;4.20;;;;;;;34.69;29.06;99505.39;88295;1271;79943;-68
2022/05/12 05:41:11;;;;;;;;;;;;;;;35.12;27.85;99508.80;88364;1271;82215;-68
2022/05/12 05:43:20;;;;;;;9.30;4.00;;;;;;;35.49;28.16;99505.28;88282;1271;97961;-65
2022/05/12 05:45:33;;;;;;;10.90;4.30;;;;;;;35.92;27.69;99505.55;88280;1271;89306;-68
2022/05/12 05:47:45;;;;;;;6.30;3.80;;;;;;;36.06;27.56;99504.75;88325;1271;94141;-67
2022/05/12 05:49:54;;;;;;;10.50;3.90;;;;;;;35.83;27.29;99503.16;88303;1271;78563;-68
2022/05/12 05:54:35;;;;;;;5.90;3.30;;;;;;;36.40;26.49;99497.63;88290;1271;100006;-66
2022/05/12 05:56:48;;;;;;;11.20;4.00;;;;;;;36.69;25.78;99496.52;88313;1271;88197;-74
2022/05/12 05:58:58;;;;;;;8.60;3.90;;;;;;;36.96;25.72;99493.20;88319;1271;94707;-75
2022/05/12 06:01:08;;;;;;;7.10;3.80;;;;;;;37.25;25.92;99492.30;88344;1271;79574;-65
2022/05/12 06:03:18;;;;;;;7.10;3.80;;;;;;;37.78;25.48;99497.88;88312;1271;80202;-65
2022/05/12 06:05:28;;;;;;;13.10;4.20;;;;;;;38.42;25.08;99500.52;88282;1271;98618;-66
2022/05/12 06:07:40;;;;;;;7.10;3.40;;;;;;;38.73;24.70;99506.69;88329;1272;87568;-65
2022/05/12 06:09:54;;;;;;;35.80;32.20;;;;;;;39.07;24.07;99501.44;88286;1271;94272;-63
2022/05/12 06:12:07;;;;;;;11.10;7.00;;;;;;;39.38;23.78;99496.55;88330;1269;78920;-70
2022/05/12 06:14:17;;;;;;;10.20;4.10;;;;;;;39.59;23.70;99501.48;88317;1271;82433;-71
2022/05/12 06:16:26;;;;;;;10.80;3.90;;;;;;;39.32;22.29;99502.91;88278;1271;99044;-72
2022/05/12 06:18:36;;;;;;;8.70;4.30;;;;;;;39.23;23.21;99506.71;88300;1271;89650;-68
2022/05/12 06:20:47;;;;;;;11.40;3.90;;;;;;;39.18;23.22;99507.02;88315;1271;93647;-69
2022/05/12 06:22:57;;;;;;;8.90;3.70;;;;;;;39.60;22.70;99499.45;88301;1272;77775;-64
2022/05/12 06:25:09;;;;;;;9.50;4.00;;;;;;;39.88;22.37;99500.08;88318;1271;82310;-62
2022/05/12 06:27:20;;;;;;;9.70;4.20;;;;;;;39.95;21.21;99502.97;88298;1271;99996;-73
2022/05/12 06:29:29;;;;;;;14.00;4.20;;;;;;;39.83;21.57;99505.98;88287;1273;86387;-70
2022/05/12 06:31:42;;;;;;;8.80;3.90;;;;;;;39.82;22.04;99504.22;88305;1271;95169;-62
2022/05/12 06:33:54;;;;;;;10.80;3.90;;;;;;;40.04;21.48;99504.26;88220;1273;79715;-65
2022/05/12 06:36:07;;;;;;;;;;;;;;;40.14;20.50;99506.27;88311;1272;83099;-66
2022/05/12 06:38:17;;;;;;;10.90;3.70;;;;;;;40.22;21.49;99513.91;88238;1273;100467;-65
2022/05/12 06:40:26;;;;;;;13.20;4.30;;;;;;;40.74;21.25;99511.44;88255;1273;88538;-64
2022/05/12 06:42:41;;;;;;;9.10;3.80;;;;;;;41.11;21.06;99510.73;88284;1274;95590;-65
2022/05/12 06:44:50;;;;;;;6.20;3.60;;;;;;;41.20;21.07;99510.51;88288;1271;81434;-65
2022/05/12 06:46:59;;;;;;;10.20;3.80;;;;;;;41.44;20.83;99512.77;88290;1271;83764;-66
2022/05/12 06:49:10;;;;;;;12.30;4.10;;;;;;;41.61;20.45;99513.67;88294;1271;99288;-64
2022/05/12 06:51:19;;;;;;;10.50;3.80;;;;;;;41.96;20.53;99509.06;88342;1271;89585;-72
2022/05/12 06:53:31;;;;;;;8.20;3.40;;;;;;;41.89;20.38;99510.67;88286;1271;95760;-73
2022/05/12 06:55:39;;;;;;;;;;;;;;;41.74;20.81;99513.41;88274;1271;82460;-72
2022/05/12 06:57:51;;;;;;;10.10;3.60;;;;;;;41.82;20.79;99514.08;88313;1272;83532;-73
2022/05/12 07:00:18;;;;;;;10.50;3.80;;;;;;;41.68;19.91;99506.41;88273;1271;99670;-73
2022/05/12 07:02:27;;;;;;;8.40;3.90;;;;;;;41.66;20.25;99510.80;88221;1273;89917;-72
2022/05/12 07:04:36;;;;;;;13.40;4.40;;;;;;;41.79;19.75;99510.27;88298;1271;95755;-74
2022/05/12 07:06:49;;;;;;;19.90;5.50;;;;;;;41.88;19.86;99510.52;88336;1271;78148;-73
2022/05/12 07:09:01;;;;;;;25.50;5.10;;;;;;;42.41;19.72;99511.15;88313;1271;83489;-73
2022/05/12 07:11:10;;;;;;;15.80;4.90;;;;;;;42.59;19.41;99516.21;88312;1271;99909;-66
2022/05/12 07:13:20;;;;;;;10.20;4.10;;;;;;;42.17;19.50;99513.78;88316;1271;89298;-66
2022/05/12 07:15:29;;;;;;;22.50;4.90;;;;;;;42.63;19.20;99521.27;88290;1271;95333;-66
2022/05/12 07:17:39;;;;;;;18.20;4.40;;;;;;;42.81;18.68;99516.06;88289;1271;78330;-66
2022/05/12 07:19:48;;;;;;;17.30;4.50;;;;;;;42.60;18.81;99517.41;88293;1272;82286;-67
2022/05/12 07:26:59;;;;;;;16.70;4.70;;;;;;;41.19;18.13;99526.28;87993;1279;94779;-67
2022/05/12 07:29:11;;;;;;;14.20;4.30;;;;;;;40.15;19.12;99539.01;88020;1279;78870;-66
2022/05/12 07:31:20;;;;;;;18.70;5.40;;;;;;;39.87;19.33;99543.98;88024;1279;82733;-73
2022/05/12 07:33:30;;;;;;;21.80;5.80;;;;;;;39.25;19.66;99553.40;88013;1279;99734;-74
2022/05/12 07:35:39;;;;;;;17.00;4.60;;;;;;;39.66;19.78;99556.52;88041;1279;89044;-69
2022/05/12 07:37:48;;;;;;;18.20;4.60;;;;;;;39.24;19.94;99571.16;88000;1279;95501;-67
2022/05/12 07:39:58;;;;;;;11.10;4.80;;;;;;;39.19;20.22;99561.05;88012;1278;78908;-68
2022/05/12 07:42:07;;;;;;;13.30;4.70;;;;;;;39.22;20.42;99569.54;88047;1279;83781;-69
2022/05/12 07:44:19;;;;;;;16.90;5.00;;;;;;;39.96;20.30;99578.88;88103;1275;98243;-70
2022/05/12 07:46:30;;;;;;;14.60;4.80;;;;;;;40.04;20.36;99579.52;88268;1273;87341;-69
2022/05/12 07:48:40;;;;;;;7.40;4.00;;;;;;;40.30;20.38;99592.83;88205;1275;97814;-70
2022/05/12 07:50:52;;;;;;;10.70;4.40;;;;;;;40.68;20.16;99592.33;88215;1273;81134;-69
2022/05/12 07:53:02;;;;;;;13.90;4.40;;;;;;;40.70;19.94;99599.92;88212;1274;82707;-69
2022/05/12 07:55:12;;;;;;;10.10;4.30;;;;;;;39.49;19.96;99612.13;88243;1272;100022;-68
2022/05/12 07:57:22;;;;;;;6.80;4.40;;;;;;;37.64;20.33;99611.96;88223;1273;87717;-69
2022/05/12 07:59:34;;;;;;;9.60;4.20;;;;;;;36.21;21.39;99614.77;88188;1274;94643;-68
2022/05/12 08:01:44;;;;;;;11.50;4.30;;;;;;;35.08;22.07;99622.73;88236;1273;79056;-65
2022/05/12 08:03:58;;;;;;;9.90;4.50;;;;;;;34.36;23.15;99638.77;88214;1273;79700;-64
2022/05/12 08:06:09;;;;;;;5.80;3.50;;;;;;;33.70;23.88;99642.54;88238;1273;98523;-75
2022/05/12 08:08:18;;;;;;;9.30;4.70;;;;;;;33.51;24.71;99656.25;88232;1273;89675;-71
2022/05/12 08:10:28;;;;;;;11.30;4.80;;;;;;;33.69;24.84;99667.73;88196;1273;94860;-70
2022/05/12 08:12:38;;;;;;;8.70;3.90;;;;;;;34.09;25.10;99668.64;88195;1274;80032;-71
2022/05/12 08:14:50;;;;;;;12.20;4.30;;;;;;;34.12;24.91;99679.31;88242;1273;81833;-70
2022/05/12 08:17:03;;;;;;;10.80;4.50;;;;;;;34.19;24.91;99678.77;88166;1274;99366;-70
2022/05/12 08:19:12;;;;;;;8.80;4.70;;;;;;;33.23;25.01;99686.26;88216;1273;87089;-70
2022/05/12 08:21:25;;;;;;;8.80;4.70;;;;;;;32.06;25.89;99688.58;88218;1273;95117;-70
2022/05/12 08:23:37;;;;;;;7.70;4.40;;;;;;;31.25;26.61;99701.58;88201;1273;79281;-69
2022/05/12 08:25:47;;;;;;;10.60;4.30;;;;;;;30.33;27.28;99717.11;88240;1273;81339;-70
2022/05/12 08:27:57;;;;;;;13.60;4.20;;;;;;;29.52;28.36;99730.73;88189;1274;99869;-70
2022/05/12 08:30:09;;;;;;;9.70;3.90;;;;;;;28.83;29.17;99749.22;88246;1273;88908;-69
2022/05/12 08:32:18;;;;;;;10.70;4.40;;;;;;;28.40;29.56;99753.33;88285;1273;95609;-70
2022/05/12 08:34:29;;;;;;;10.10;3.70;;;;;;;27.97;30.17;99750.44;88263;1273;80493;-65
2022/05/12 08:36:38;;;;;;;15.50;3.80;;;;;;;27.55;31.01;99766.13;88308;1273;80684;-64
2022/05/12 08:38:50;;;;;;;9.60;2.90;;;;;;;27.15;31.80;99773.59;88253;1272;99370;-70
2022/05/12 08:41:17;;;;;;;17.20;4.00;;;;;;;27.10;32.03;99763.84;88302;1273;87783;-70
2022/05/12 08:43:37;;;;;;;18.50;3.70;;;;;;;27.15;32.45;99779.27;88242;1273;94158;-70
2022/05/12 08:45:47;;;;;;;10.40;3.90;;;;;;;27.51;32.64;99786.83;88270;1274;79543;-69
2022/05/12 08:47:58;;;;;;;10.50;2.90;;;;;;;27.96;31.92;99787.83;88268;1272;81609;-69
2022/05/12 08:50:18;;;;;;;13.20;3.10;;;;;;;28.19;31.96;99799.05;88321;1273;99745;-70
2022/05/12 08:52:37;;;;;;;11.60;2.90;;;;;;;28.35;31.79;99795.59;88272;1273;88353;-69
2022/05/12 08:54:52;;;;;;;13.30;2.80;;;;;;;28.39;31.43;99807.77;88255;1273;95435;-69
2022/05/12 08:57:26;;;;;;;13.50;2.50;;;;;;;28.50;31.60;99808.71;88289;1273;78888;-68
2022/05/12 08:59:41;;;;;;;12.80;2.40;;;;;;;28.35;31.53;99811.77;88260;1273;82120;-68
2022/05/12 09:02:09;;;;;;;9.70;2.30;;;;;;;28.01;31.61;99828.97;88308;1273;100248;-70
2022/05/12 09:04:52;;;;;;;11.40;3.10;;;;;;;27.54;32.18;99828.38;88288;1273;88890;-67
2022/05/12 09:07:09;;;;;;;9.60;2.60;;;;;;;27.10;32.74;99824.57;88285;1274;93990;-68
2022/05/12 09:09:27;;;;;;;10.80;2.50;;;;;;;27.03;32.83;99824.79;88270;1273;78328;-67
2022/05/12 09:11:46;;;;;;;8.90;2.70;;;;;;;26.77;33.09;99826.19;88283;1273;82941;-68
2022/05/12 09:13:59;;;;;;;8.20;2.70;;;;;;;27.02;33.30;99833.55;88265;1272;98902;-70
2022/05/12 09:16:15;;;;;;;;;;;;;;;26.94;33.75;99830.16;88296;1272;89658;-68
2022/05/12 09:18:33;;;;;;;14.50;2.90;;;;;;;27.00;33.91;99838.77;88309;1272;94405;-69
2022/05/12 09:20:46;;;;;;;13.00;2.80;;;;;;;27.08;33.91;99837.72;88300;1273;80036;-67
2022/05/12 09:22:58;;;;;;;10.00;2.30;;;;;;;26.83;33.71;99844.09;88306;1273;80437;-69
2022/05/12 09:25:28;;;;;;;8.10;2.40;;;;;;;26.70;33.86;99844.23;88278;1273;98929;-69
2022/05/12 09:27:40;;;;;;;9.80;2.40;;;;;;;26.73;34.15;99845.50;88291;1273;88670;-69
2022/05/12 09:29:51;;;;;;;8.70;2.00;;;;;;;26.66;33.84;99851.69;88265;1271;95264;-69
2022/05/12 09:32:21;;;;;;;7.40;2.10;;;;;;;26.45;33.61;99850.10;88328;1271;77682;-68
2022/05/12 09:34:36;;;;;;;6.70;1.90;;;;;;;26.24;33.79;99862.64;88286;1271;82960;-67
2022/05/12 09:36:49;;;;;;;8.20;1.60;;;;;;;26.11;34.26;99865.24;88271;1271;98982;-67
2022/05/12 09:38:58;;;;;;;9.40;1.80;;;;;;;26.04;34.81;99874.89;88274;1271;89044;-67
2022/05/12 09:41:24;;;;;;;8.40;2.10;;;;;;;26.21;34.72;99882.42;88302;1271;94502;-68
2022/05/12 09:43:35;;;;;;;6.00;1.80;;;;;;;26.51;34.42;99884.23;88270;1271;79924;-67
2022/05/12 09:45:45;;;;;;;10.50;2.60;;;;;;;26.72;34.30;99892.08;88282;1271;82864;-67
2022/05/12 09:48:10;;;;;;;12.70;2.00;;;;;;;26.70;34.20;99889.67;88299;1271;97116;-69
2022/05/12 09:50:27;;;;;;;10.50;2.10;;;;;;;26.78;34.23;99906.16;88295;1271;87999;-69
2022/05/12 09:52:39;;;;;;;12.10;1.70;;;;;;;26.92;34.16;99910.88;88244;1273;95868;-67
2022/05/12 09:55:08;;;;;;;7.20;1.60;;;;;;;27.01;33.89;99918.83;88311;1271;80087;-67
2022/05/12 09:57:26;;;;;;;7.60;2.20;;;;;;;27.03;33.88;99925.45;88312;1272;81819;-68
2022/05/12 09:59:40;;;;;;;6.10;1.70;;;;;;;27.19;34.25;99926.61;88320;1271;98288;-68
2022/05/12 10:01:59;;;;;;;10.20;1.60;;;;;;;27.26;34.00;99937.77;88316;1271;87513;-69
2022/05/12 10:09:35;;;;;;;17.80;2.20;;;;;;;25.99;34.57;99966.00;88346;1271;79638;-67
2022/05/12 10:11:54;;;;;;;8.40;1.50;;;;;;;25.56;34.77;99975.00;88284;1271;98227;-68
2022/05/12 10:14:08;;;;;;;11.40;1.70;;;;;;;25.24;35.02;99979.27;88331;1271;89514;-68
2022/05/12 10:16:23;;;;;;;12.70;1.90;;;;;;;25.29;35.10;99988.79;88258;1273;95379;-62
2022/05/12 10:18:42;;;;;;;14.30;1.90;;;;;;;25.62;35.15;99989.85;88325;1271;78141;-70
2022/05/12 10:20:56;;;;;;;21.90;2.10;;;;;;;26.09;34.33;99983.69;88164;1276;81601;-69
2022/05/12 10:23:20;;;;;;;16.70;1.70;;;;;;;26.43;34.09;99990.83;88279;1271;99342;-68
2022/05/12 10:26:04;;;;;;;9.00;1.70;;;;;;;26.82;33.65;99989.02;88298;1271;89194;-67
2022/05/12 10:28:24;;;;;;;11.20;1.70;;;;;;;27.01;33.04;99993.75;88052;1278;94322;-69
2022/05/12 10:30:48;;;;;;;9.80;1.40;;;;;;;27.05;32.85;99994.95;88085;1278;79168;-68
2022/05/12 10:33:14;;;;;;;12.70;1.40;;;;;;;27.06;32.75;99999.38;88280;1274;81068;-67
2022/05/12 10:35:34;;;;;;;13.90;1.90;;;;;;;26.97;32.64;100002.05;88308;1274;100016;-67
2022/05/12 10:37:55;;;;;;;8.40;1.70;;;;;;;26.68;32.71;100004.78;88280;1274;86557;-69